Libby, Minnesota
Current Conditions -  °F | °C
As of 12:14 PM on Monday 26 Jan 2015 (Local Time) from KAIT Reporting Station
Overcast Overcast  
Wind Chill: 38°   Ceiling: 2000
Heat Index: 41°   Visibility: 10mi
Dew Point: 34°   Wind: 5mph
Humidity: 76%   Direction: 280°W
Pressure: 29.66"   Gusts: NA
Location:  46.7281°N, 93.6101°W
Report Text: KAIT 261814Z AUTO 28004KT 10SM OVC020 05/01 A2966 RMK AO2
Loading
Personal Weather Stations






























Interactive Weather Map New forecast layout! Learn more

10-Day Weather Forecast

Advertisements
Track Severe Weather on mobile